Terminal Aerodrome Forecast
Issued by NWS

Home | Current Version | Previous Version | Text Only | Print | Product List | Glossary On
Versions: 1 2 3 4 5 6 7 8 9 10 11 12 13 14 15 16 17 18 19 20 21 22 23 24 25 26
000
FTUS46 KLOX 290800 AAA
TAFLAX
TAF AMD
KLAX 290852Z 2909/3012 26006KT P6SM SKC
     FM291100 VRB03KT P6SM SKC
     FM291300 VRB03KT 5SM BR SCT005
     FM291600 26007KT P6SM SKC
     FM292000 26012KT P6SM SKC
     FM300400 26007KT 6SM BR SCT007
     FM300900 VRB04KT 5SM BR OVC010=

USA.gov is the U.S. government's official web portal to all federal, state and local government web resources and services.